createdAt,value
2019-03-21T00:01:35.189Z,6.80
2019-03-21T00:04:41.170Z,8.40
2019-03-21T00:07:46.919Z,6.30
2019-03-21T00:11:27.505Z,5.80
2019-03-21T00:15:14.689Z,6.20
2019-03-21T00:18:20.168Z,5.70
2019-03-21T00:21:25.712Z,6.90
2019-03-21T00:24:31.294Z,6.10
2019-03-21T00:27:36.992Z,6.67
2019-03-21T00:30:42.593Z,6.60
2019-03-21T00:34:02.494Z,6.53
2019-03-21T00:37:08.629Z,5.53
2019-03-21T00:40:16.688Z,7.03
2019-03-21T00:43:22.413Z,5.70
2019-03-21T00:46:27.907Z,6.37
2019-03-21T00:49:33.356Z,6.00
2019-03-21T00:52:40.948Z,7.00
2019-03-21T00:55:47.714Z,5.97
2019-03-21T00:58:53.180Z,5.20
2019-03-21T01:01:58.632Z,6.20
2019-03-21T01:05:04.766Z,5.93
2019-03-21T01:08:10.318Z,6.50
2019-03-21T01:11:16.017Z,6.03
2019-03-21T01:14:29.456Z,5.80
2019-03-21T01:17:28.977Z,7.10
2019-03-21T01:20:34.389Z,6.40
2019-03-21T01:23:39.899Z,7.17
2019-03-21T01:26:45.536Z,6.60
2019-03-21T01:29:51.174Z,6.13
2019-03-21T01:33:03.502Z,6.73
2019-03-21T01:36:09.796Z,5.67
2019-03-21T01:39:16.184Z,5.73
2019-03-21T01:42:21.899Z,5.47
2019-03-21T01:45:27.350Z,5.30
2019-03-21T01:48:32.933Z,4.90
2019-03-21T01:51:38.634Z,5.33
2019-03-21T01:54:44.141Z,5.50
2019-03-21T01:57:51.110Z,6.13
2019-03-21T02:00:56.556Z,5.60
2019-03-21T02:04:02.310Z,5.97
2019-03-21T02:07:07.812Z,5.47
2019-03-21T02:10:14.821Z,6.07
2019-03-21T02:13:20.401Z,5.50
2019-03-21T02:16:25.918Z,6.00
2019-03-21T02:19:31.284Z,7.10
2019-03-21T02:22:36.884Z,6.90
2019-03-21T02:25:42.588Z,6.10
2019-03-21T02:28:48.123Z,5.60
2019-03-21T02:31:53.514Z,5.23
2019-03-21T02:34:59.029Z,5.10
2019-03-21T02:38:04.467Z,5.50
2019-03-21T02:41:10.461Z,6.10
2019-03-21T02:44:16.407Z,5.80
2019-03-21T02:47:22.021Z,5.67
2019-03-21T02:50:30.276Z,5.77
2019-03-21T02:53:36.008Z,5.77
2019-03-21T02:56:41.725Z,5.03
2019-03-21T02:59:47.330Z,5.13
2019-03-21T03:02:54.659Z,5.20
2019-03-21T03:06:00.284Z,5.53
2019-03-21T03:09:08.117Z,5.23
2019-03-21T03:12:13.531Z,5.97
2019-03-21T03:15:22.925Z,5.10
2019-03-21T03:18:27.289Z,5.13
2019-03-21T03:21:32.972Z,5.10
2019-03-21T03:24:38.972Z,5.27
2019-03-21T03:27:44.564Z,4.70
2019-03-21T03:30:50.079Z,6.07
2019-03-21T03:33:55.686Z,5.13
2019-03-21T03:37:01.213Z,5.70
2019-03-21T03:40:08.815Z,4.97
2019-03-21T03:43:14.265Z,4.87
2019-03-21T03:46:19.710Z,5.50
2019-03-21T03:49:25.280Z,5.57
2019-03-21T03:52:30.808Z,5.37
2019-03-21T03:55:37.010Z,4.97
2019-03-21T03:58:43.640Z,5.47
2019-03-21T04:01:49.269Z,5.27
2019-03-21T04:04:54.737Z,6.20
2019-03-21T04:08:00.270Z,6.80
2019-03-21T04:11:05.930Z,5.97
2019-03-21T04:14:11.530Z,6.70
2019-03-21T04:17:17.052Z,7.20
2019-03-21T04:20:24.362Z,5.80
2019-03-21T04:23:29.778Z,6.63
2019-03-21T04:26:35.386Z,6.30
2019-03-21T04:29:41.098Z,5.43
2019-03-21T04:32:46.687Z,6.10
2019-03-21T04:35:52.273Z,7.00
2019-03-21T04:38:57.811Z,5.87
2019-03-21T04:42:03.516Z,5.23
2019-03-21T04:45:11.801Z,6.27
2019-03-21T04:48:17.504Z,5.60
2019-03-21T04:51:23.034Z,5.40
2019-03-21T04:54:28.424Z,6.07
2019-03-21T04:57:34.130Z,6.03
2019-03-21T05:00:39.788Z,6.37
2019-03-21T05:03:45.218Z,6.27
2019-03-21T05:06:50.627Z,5.83
2019-03-21T05:09:56.130Z,6.00
2019-03-21T05:13:01.515Z,6.17
2019-03-21T05:16:14.614Z,6.37
2019-03-21T05:19:14.836Z,7.53
2019-03-21T05:22:20.615Z,6.27
2019-03-21T05:25:26.229Z,6.00
2019-03-21T05:28:31.702Z,5.30
2019-03-21T05:31:37.457Z,6.17
2019-03-21T05:34:43.233Z,6.50
2019-03-21T05:37:48.972Z,6.23
2019-03-21T05:40:54.552Z,7.83
2019-03-21T05:44:03.534Z,6.43
2019-03-21T05:47:09.256Z,6.17
2019-03-21T05:50:15.619Z,7.20
2019-03-21T05:53:21.063Z,6.40
2019-03-21T05:56:26.971Z,6.53
2019-03-21T05:59:32.594Z,7.00
2019-03-21T06:02:38.095Z,6.97
2019-03-21T06:05:45.150Z,6.90
2019-03-21T06:08:50.824Z,7.17
2019-03-21T06:11:58.129Z,6.97
2019-03-21T06:15:03.074Z,7.47
2019-03-21T06:18:58.291Z,7.67
2019-03-21T06:22:25.643Z,6.73
2019-03-21T06:26:04.244Z,6.80
2019-03-21T06:29:09.816Z,7.20
2019-03-21T06:32:15.570Z,6.73
2019-03-21T06:35:22.654Z,7.17
2019-03-21T06:38:28.328Z,7.37
2019-03-21T06:41:33.894Z,7.37
2019-03-21T06:44:39.447Z,6.53
2019-03-21T06:47:45.161Z,6.40
2019-03-21T06:50:50.731Z,6.77
2019-03-21T06:53:56.348Z,6.60
2019-03-21T06:57:02.648Z,7.30
2019-03-21T07:00:08.634Z,6.80
2019-03-21T07:03:16.324Z,7.03
2019-03-21T07:06:21.582Z,6.60
2019-03-21T07:09:29.088Z,5.80
2019-03-21T07:12:34.107Z,5.47
2019-03-21T07:15:39.846Z,5.00
2019-03-21T07:18:45.516Z,5.50
2019-03-21T07:21:51.039Z,5.10
2019-03-21T07:24:56.627Z,5.43
2019-03-21T07:28:04.912Z,6.10
2019-03-21T07:31:11.489Z,6.07
2019-03-21T07:34:17.260Z,5.90
2019-03-21T07:37:24.492Z,5.80
2019-03-21T07:40:30.089Z,5.40
2019-03-21T07:43:36.051Z,5.80
2019-03-21T07:46:41.613Z,6.30
2019-03-21T07:49:47.086Z,6.83
2019-03-21T07:52:52.647Z,7.03
2019-03-21T07:55:58.289Z,7.27
2019-03-21T07:59:03.918Z,6.00
2019-03-21T08:02:09.599Z,5.53
2019-03-21T08:05:15.784Z,5.53
2019-03-21T08:08:21.409Z,5.80
2019-03-21T08:11:27.199Z,4.40
2019-03-21T08:14:32.989Z,5.10
2019-03-21T08:17:38.472Z,4.97
2019-03-21T08:20:55.697Z,5.00
2019-03-21T08:23:51.785Z,4.30
2019-03-21T08:26:57.608Z,4.93
2019-03-21T08:30:03.325Z,5.07
2019-03-21T08:33:08.906Z,5.23
2019-03-21T08:36:14.622Z,5.43
2019-03-21T08:39:20.485Z,4.87
2019-03-21T08:42:25.953Z,5.08
2019-03-21T08:45:31.708Z,5.28
2019-03-21T08:48:37.215Z,4.47
2019-03-21T08:51:42.801Z,5.28
2019-03-21T08:54:48.314Z,4.45
2019-03-21T08:57:53.955Z,5.55
2019-03-21T09:00:59.448Z,4.60
2019-03-21T09:04:05.430Z,4.70
2019-03-21T09:07:10.986Z,4.20
2019-03-21T09:10:16.700Z,7.45
2019-03-21T09:13:22.296Z,5.40
2019-03-21T09:16:27.824Z,4.83
2019-03-21T09:19:33.396Z,4.40
2019-03-21T09:22:39.187Z,4.70
2019-03-21T09:25:44.898Z,4.22
2019-03-21T09:28:50.638Z,4.72
2019-03-21T09:31:56.410Z,4.83
2019-03-21T09:35:01.956Z,4.40
2019-03-21T09:38:07.703Z,4.70
2019-03-21T09:41:13.263Z,4.92
2019-03-21T09:44:24.382Z,5.65
2019-03-21T09:47:29.917Z,5.60
2019-03-21T09:50:35.457Z,8.20
2019-03-21T09:53:40.993Z,5.92
2019-03-21T09:56:47.844Z,6.15
2019-03-21T09:59:53.216Z,5.87
2019-03-21T10:02:58.621Z,6.78
2019-03-21T10:06:04.141Z,6.10
2019-03-21T10:09:09.897Z,5.95
2019-03-21T10:12:15.620Z,6.33
2019-03-21T10:15:21.177Z,5.97
2019-03-21T10:18:26.493Z,6.10
2019-03-21T10:21:42.828Z,6.45
2019-03-21T10:24:39.358Z,5.60
2019-03-21T10:27:45.152Z,5.12
2019-03-21T10:30:50.895Z,5.37
2019-03-21T10:33:56.477Z,4.60
2019-03-21T10:37:02.411Z,6.12
2019-03-21T10:40:08.126Z,6.17
2019-03-21T10:43:14.001Z,5.08
2019-03-21T10:46:19.506Z,5.12
2019-03-21T10:49:25.020Z,4.28
2019-03-21T10:52:30.591Z,5.30
2019-03-21T10:55:36.514Z,5.42
2019-03-21T10:58:42.084Z,5.20
2019-03-21T11:01:47.713Z,5.83
2019-03-21T11:04:53.868Z,5.60
2019-03-21T11:07:59.662Z,5.93
2019-03-21T11:11:05.509Z,5.07
2019-03-21T11:14:11.085Z,5.33
2019-03-21T11:17:22.574Z,4.50
2019-03-21T11:20:35.882Z,5.70
2019-03-21T11:23:41.454Z,6.10
2019-03-21T11:26:46.986Z,6.00
2019-03-21T11:29:59.155Z,5.43
2019-03-21T11:33:04.876Z,7.23
2019-03-21T11:36:10.624Z,6.70
2019-03-21T11:39:15.997Z,6.70
2019-03-21T11:42:21.780Z,6.90
2019-03-21T11:45:27.378Z,6.87
2019-03-21T11:48:32.850Z,6.10
2019-03-21T11:51:38.801Z,7.80
2019-03-21T11:54:44.562Z,6.53
2019-03-21T11:57:50.147Z,6.53
2019-03-21T12:00:55.558Z,6.63
2019-03-21T12:04:00.981Z,6.57
2019-03-21T12:07:06.553Z,6.50
2019-03-21T12:10:12.166Z,6.40
2019-03-21T12:13:17.622Z,8.97
2019-03-21T12:16:23.174Z,6.80
2019-03-21T12:19:30.786Z,5.93
2019-03-21T12:22:36.717Z,6.67
2019-03-21T12:25:45.134Z,7.53
2019-03-21T12:28:52.267Z,9.17
2019-03-21T12:31:57.688Z,6.70
2019-03-21T12:35:03.220Z,7.37
2019-03-21T12:38:09.098Z,6.30
2019-03-21T12:41:14.942Z,6.47
2019-03-21T12:44:20.359Z,6.27
2019-03-21T12:47:31.554Z,7.07
2019-03-21T12:50:34.145Z,7.90
2019-03-21T12:53:39.629Z,7.47
2019-03-21T12:56:45.229Z,7.33
2019-03-21T12:59:51.128Z,7.37
2019-03-21T13:03:15.358Z,8.17
2019-03-21T13:06:21.207Z,7.10
2019-03-21T13:09:26.760Z,7.53
2019-03-21T13:12:37.971Z,7.50
2019-03-21T13:15:43.692Z,6.63
2019-03-21T13:18:49.535Z,6.33
2019-03-21T13:21:55.165Z,7.03
2019-03-21T13:25:01.341Z,6.90
2019-03-21T13:28:07.590Z,7.03
2019-03-21T13:31:13.065Z,7.87
2019-03-21T13:34:18.633Z,7.27
2019-03-21T13:37:24.396Z,7.40
2019-03-21T13:40:29.988Z,8.23
2019-03-21T13:43:35.482Z,7.70
2019-03-21T13:46:41.556Z,7.93
2019-03-21T13:49:47.037Z,8.60
2019-03-21T13:53:03.945Z,7.07
2019-03-21T13:56:00.884Z,12.43
2019-03-21T13:59:06.738Z,7.43
2019-03-21T14:02:12.574Z,7.20
2019-03-21T14:05:18.165Z,8.17
2019-03-21T14:08:23.619Z,8.20
2019-03-21T14:11:29.251Z,8.50
2019-03-21T14:14:35.313Z,7.07
2019-03-21T14:17:41.057Z,7.67
2019-03-21T14:20:47.031Z,6.93
2019-03-21T14:23:52.542Z,8.23
2019-03-21T14:26:58.002Z,7.80
2019-03-21T14:30:03.687Z,8.17
2019-03-21T14:33:14.915Z,7.93
2019-03-21T14:36:20.505Z,8.33
2019-03-21T14:39:25.880Z,8.97
2019-03-21T14:42:31.889Z,9.80
2019-03-21T14:45:37.350Z,7.87
2019-03-21T14:48:42.931Z,7.50
2019-03-21T14:51:48.647Z,7.40
2019-03-21T14:54:54.303Z,7.20
2019-03-21T14:57:59.811Z,7.57
2019-03-21T15:01:05.134Z,8.00
2019-03-21T15:04:10.693Z,6.60
2019-03-21T15:07:18.654Z,7.67
2019-03-21T15:10:23.920Z,7.70
2019-03-21T15:13:29.495Z,7.10
2019-03-21T15:16:35.009Z,6.97
2019-03-21T15:19:40.510Z,7.57
2019-03-21T15:22:46.011Z,7.00
2019-03-21T15:25:51.632Z,6.47
2019-03-21T15:28:57.535Z,6.50
2019-03-21T15:32:03.290Z,6.20
2019-03-21T15:35:10.170Z,6.27
2019-03-21T15:38:16.774Z,6.20
2019-03-21T15:41:22.391Z,5.77
2019-03-21T15:44:28.174Z,6.30
2019-03-21T15:47:34.083Z,5.97
2019-03-21T15:50:39.629Z,6.87
2019-03-21T15:53:53.488Z,5.83
2019-03-21T15:56:52.516Z,6.90
2019-03-21T15:59:58.389Z,6.73
2019-03-21T16:03:04.343Z,6.00
2019-03-21T16:06:10.109Z,6.00
2019-03-21T16:09:16.068Z,6.90
2019-03-21T16:12:25.370Z,6.10
2019-03-21T16:15:31.244Z,7.87
2019-03-21T16:18:38.668Z,5.77
2019-03-21T16:21:44.459Z,6.17
2019-03-21T16:24:50.190Z,5.57
2019-03-21T16:27:56.806Z,6.70
2019-03-21T16:31:02.901Z,6.60
2019-03-21T16:34:08.802Z,6.47
2019-03-21T16:37:15.695Z,7.17
2019-03-21T16:40:21.117Z,6.97
2019-03-21T16:43:27.031Z,6.80
2019-03-21T16:46:33.844Z,6.13
2019-03-21T16:49:42.633Z,6.70
2019-03-21T16:52:48.377Z,6.30
2019-03-21T16:55:54.179Z,6.27
2019-03-21T16:59:00.338Z,7.07
2019-03-21T17:02:06.612Z,6.30
2019-03-21T17:05:13.407Z,5.57
2019-03-21T17:08:20.253Z,6.60
2019-03-21T17:11:29.908Z,6.50
2019-03-21T17:14:35.400Z,6.77
2019-03-21T17:17:41.121Z,7.40
2019-03-21T17:20:54.658Z,8.60
2019-03-21T17:24:00.141Z,7.00
2019-03-21T17:27:05.675Z,7.33
2019-03-21T17:30:12.792Z,7.77
2019-03-21T17:33:18.700Z,8.27
2019-03-21T17:36:24.446Z,7.63
2019-03-21T17:39:30.276Z,6.70
2019-03-21T17:42:42.053Z,8.17
2019-03-21T17:45:47.511Z,7.00
2019-03-21T17:48:53.109Z,7.90
2019-03-21T17:51:58.569Z,7.30
2019-03-21T17:55:04.425Z,7.80
2019-03-21T17:58:10.140Z,7.83
2019-03-21T18:01:16.112Z,9.03
2019-03-21T18:04:23.992Z,8.13
2019-03-21T18:07:29.515Z,7.30
2019-03-21T18:10:35.457Z,8.33
2019-03-21T18:13:41.147Z,8.70
2019-03-21T18:16:46.711Z,7.80
2019-03-21T18:19:52.227Z,7.33
2019-03-21T18:22:57.732Z,10.07
2019-03-21T18:26:03.146Z,8.23
2019-03-21T18:29:15.898Z,9.33
2019-03-21T18:32:21.433Z,9.90
2019-03-21T18:35:27.157Z,9.03
2019-03-21T18:38:32.632Z,8.87
2019-03-21T18:41:38.285Z,12.90
2019-03-21T18:44:43.837Z,18.00
2019-03-21T18:47:52.922Z,16.20
2019-03-21T18:50:58.590Z,12.60
2019-03-21T18:54:05.314Z,12.47
2019-03-21T18:57:10.838Z,10.90
2019-03-21T19:00:16.902Z,9.73
2019-03-21T19:03:22.500Z,11.57
2019-03-21T19:06:28.065Z,10.80
2019-03-21T19:09:33.587Z,10.93
2019-03-21T19:12:39.165Z,11.40
2019-03-21T19:15:44.716Z,11.43
2019-03-21T19:18:50.445Z,11.53
2019-03-21T19:21:56.250Z,11.83
2019-03-21T19:25:17.818Z,11.93
2019-03-21T19:28:16.137Z,11.80
2019-03-21T19:31:22.089Z,11.10
2019-03-21T19:34:27.952Z,11.00
2019-03-21T19:37:33.800Z,11.60
2019-03-21T19:40:39.313Z,10.80
2019-03-21T19:43:44.918Z,10.70
2019-03-21T19:46:50.385Z,9.83
2019-03-21T19:49:55.864Z,9.93
2019-03-21T19:53:01.263Z,10.17
2019-03-21T19:56:08.774Z,10.80
2019-03-21T19:59:13.782Z,9.87
2019-03-21T20:02:19.337Z,13.10
2019-03-21T20:05:24.844Z,15.00
2019-03-21T20:08:30.632Z,14.40
2019-03-21T20:11:36.404Z,14.80
2019-03-21T20:14:44.371Z,13.30
2019-03-21T20:17:51.941Z,14.17
2019-03-21T20:20:58.509Z,13.93
2019-03-21T20:24:03.926Z,13.30
2019-03-21T20:27:10.057Z,13.40
2019-03-21T20:30:18.464Z,15.60
2019-03-21T20:33:24.522Z,12.77
2019-03-21T20:36:29.972Z,13.07
2019-03-21T20:39:35.506Z,13.57
2019-03-21T20:42:41.160Z,11.67
2019-03-21T20:45:46.956Z,11.23
2019-03-21T20:48:49.900Z,10.50
2019-03-21T20:51:55.544Z,10.83
2019-03-21T20:55:01.076Z,10.53
2019-03-21T20:58:08.192Z,10.83
2019-03-21T21:01:13.918Z,10.50
2019-03-21T21:04:19.572Z,10.77
2019-03-21T21:07:25.258Z,10.13
2019-03-21T21:10:30.716Z,11.10
2019-03-21T21:13:36.390Z,10.47
2019-03-21T21:16:42.042Z,10.93
2019-03-21T21:19:47.727Z,11.10
2019-03-21T21:22:53.739Z,10.13
2019-03-21T21:26:05.477Z,11.70
2019-03-21T21:29:07.010Z,11.90
2019-03-21T21:32:13.027Z,11.20
2019-03-21T21:35:18.976Z,12.40
2019-03-21T21:38:24.451Z,11.13
2019-03-21T21:41:30.202Z,10.80
2019-03-21T21:44:36.097Z,11.10
2019-03-21T21:47:42.350Z,10.80
2019-03-21T21:50:48.137Z,10.80
2019-03-21T21:53:56.675Z,10.10
2019-03-21T21:57:02.064Z,11.30
2019-03-21T22:00:09.102Z,11.63
2019-03-21T22:03:15.198Z,13.23
2019-03-21T22:06:21.218Z,11.40
2019-03-21T22:09:26.791Z,11.53
2019-03-21T22:12:32.553Z,12.27
2019-03-21T22:15:37.942Z,11.80
2019-03-21T22:18:44.409Z,11.97
2019-03-21T22:21:50.419Z,12.83
2019-03-21T22:24:56.014Z,10.50
2019-03-21T22:28:01.492Z,10.80
2019-03-21T22:31:06.914Z,10.63
2019-03-21T22:34:12.374Z,11.90
2019-03-21T22:37:20.133Z,11.00
2019-03-21T22:40:25.929Z,12.07
2019-03-21T22:43:31.544Z,12.20
2019-03-21T22:46:36.939Z,11.97
2019-03-21T22:49:42.481Z,11.37
2019-03-21T22:52:51.732Z,11.90
2019-03-21T22:55:57.626Z,13.07
2019-03-21T22:59:03.341Z,13.10
2019-03-21T23:02:08.745Z,13.47
2019-03-21T23:05:14.759Z,14.30
2019-03-21T23:08:20.211Z,13.20
2019-03-21T23:11:25.721Z,12.87
2019-03-21T23:14:31.423Z,12.77
2019-03-21T23:17:40.065Z,12.97
2019-03-21T23:20:45.579Z,12.00
2019-03-21T23:23:50.956Z,10.23
2019-03-21T23:26:56.548Z,12.47
2019-03-21T23:30:02.108Z,12.30
2019-03-21T23:33:07.971Z,13.27
2019-03-21T23:36:13.341Z,13.73
2019-03-21T23:39:18.993Z,11.60
2019-03-21T23:42:24.678Z,11.30
2019-03-21T23:45:30.378Z,13.67
2019-03-21T23:48:35.755Z,11.43
2019-03-21T23:51:42.694Z,10.53
2019-03-21T23:54:48.269Z,12.77
2019-03-21T23:57:53.814Z,12.67
